Time;durP1;ratioP1;P1;durP2;ratioP2;P2;SDS_P1;SDS_P2;PMS_P1;PMS_P2;Temp;Humidity;BMP_temperature;BMP_pressure;BME280_temperature;BME280_humidity;BME280_pressure;Samples;Min_cycle;Max_cycle;Signal;HPM_P1;HPM_P2
2023/10/14 00:01:35;;;;;;;3.50;0.80;;;;;;;13.94;100.00;99885.56;5072456;28;20052;-51
2023/10/14 00:04:07;;;;;;;2.72;1.05;;;;;;;13.92;100.00;99890.16;5072291;28;20044;-51
2023/10/14 00:06:38;;;;;;;3.63;0.88;;;;;;;13.95;100.00;99905.72;5071413;28;20055;-52
2023/10/14 00:09:12;;;;;;;3.85;1.20;;;;;;;13.84;100.00;99925.25;5068628;28;20094;-50
2023/10/14 00:11:43;;;;;;;3.25;0.73;;;;;;;13.89;100.00;99931.91;5067212;28;20055;-53
2023/10/14 00:14:16;;;;;;;6.25;1.40;;;;;;;13.97;100.00;99930.19;5070269;28;20060;-52
2023/10/14 00:16:49;;;;;;;3.90;0.80;;;;;;;13.88;100.00;99924.94;5068981;28;20352;-52
2023/10/14 00:19:19;;;;;;;2.03;0.90;;;;;;;13.79;100.00;99931.94;5069312;28;20436;-52
2023/10/14 00:21:49;;;;;;;4.72;1.08;;;;;;;13.74;100.00;99944.72;5069357;28;20037;-49
2023/10/14 00:24:25;;;;;;;4.22;1.52;;;;;;;13.78;100.00;99954.03;5068679;28;20048;-50
2023/10/14 00:26:54;;;;;;;3.55;0.90;;;;;;;13.75;100.00;99959.63;5066676;28;20510;-52
2023/10/14 00:29:25;;;;;;;5.55;1.00;;;;;;;13.69;100.00;99959.19;5068442;28;20468;-50
2023/10/14 00:31:53;;;;;;;4.53;1.13;;;;;;;13.75;100.00;99972.84;5068242;28;20487;-50
2023/10/14 00:34:23;;;;;;;3.22;0.90;;;;;;;13.75;100.00;99973.66;5070307;28;20044;-50
2023/10/14 00:36:53;;;;;;;4.18;1.15;;;;;;;13.76;100.00;99966.59;5071924;28;20044;-50
2023/10/14 00:39:25;;;;;;;4.43;0.90;;;;;;;13.78;100.00;99967.25;5071458;28;20059;-48
2023/10/14 00:41:58;;;;;;;6.97;0.82;;;;;;;13.78;100.00;99983.09;5071864;28;20041;-48
2023/10/14 00:44:27;;;;;;;6.70;0.80;;;;;;;13.78;100.00;99980.47;5071618;28;20112;-48
2023/10/14 00:46:56;;;;;;;3.60;0.80;;;;;;;13.75;100.00;99984.22;5069706;28;20060;-52
2023/10/14 00:49:30;;;;;;;4.97;1.25;;;;;;;13.77;100.00;99995.50;5068528;28;20051;-49
2023/10/14 00:52:06;;;;;;;3.58;1.00;;;;;;;13.73;100.00;99982.69;5070702;28;20440;-51
2023/10/14 00:54:53;;;;;;;3.30;0.70;;;;;;;13.72;100.00;99994.25;5071579;28;20052;-49
2023/10/14 00:57:21;;;;;;;4.30;1.00;;;;;;;13.78;100.00;100006.91;5071735;28;20037;-50
2023/10/14 00:59:53;;;;;;;2.88;1.05;;;;;;;13.62;100.00;100021.53;5071781;28;20446;-50
2023/10/14 01:02:29;;;;;;;6.75;1.05;;;;;;;13.59;100.00;100042.09;5071793;28;20486;-48
2023/10/14 01:05:06;;;;;;;4.75;0.90;;;;;;;13.49;100.00;100042.09;5071434;28;20113;-52
2023/10/14 01:07:38;;;;;;;4.65;1.40;;;;;;;13.31;100.00;100057.75;5071502;28;20127;-48
2023/10/14 01:10:10;;;;;;;6.47;1.00;;;;;;;13.09;100.00;100064.06;5072225;28;20055;-50
2023/10/14 01:12:40;;;;;;;5.25;1.02;;;;;;;13.06;100.00;100062.56;5074107;28;20051;-48
2023/10/14 01:15:19;;;;;;;5.00;1.10;;;;;;;13.07;100.00;100053.66;5075026;28;20053;-48
2023/10/14 01:17:47;;;;;;;6.80;1.10;;;;;;;13.09;100.00;100064.06;5071667;28;20052;-49
2023/10/14 01:20:26;;;;;;;4.90;0.95;;;;;;;13.06;100.00;100069.63;5073295;28;20045;-49
2023/10/14 01:22:58;;;;;;;4.82;0.93;;;;;;;13.04;100.00;100076.88;5075313;28;20049;-47
2023/10/14 01:25:29;;;;;;;11.93;1.60;;;;;;;13.04;100.00;100087.44;5070870;28;20513;-50
2023/10/14 01:27:59;;;;;;;5.43;1.15;;;;;;;13.04;100.00;100095.34;5071746;28;20051;-48
2023/10/14 01:30:32;;;;;;;6.43;1.27;;;;;;;12.96;100.00;100104.75;5075036;28;20050;-45
2023/10/14 01:33:12;;;;;;;9.15;1.38;;;;;;;12.94;100.00;100116.41;5074952;28;20119;-49
2023/10/14 01:35:43;;;;;;;7.35;1.08;;;;;;;12.93;100.00;100118.22;5074833;28;20438;-50
2023/10/14 01:38:13;;;;;;;6.85;1.13;;;;;;;12.93;100.00;100123.50;5074760;28;20550;-48
2023/10/14 01:40:48;;;;;;;9.02;1.23;;;;;;;12.89;100.00;100129.19;5073450;28;20053;-46
2023/10/14 01:43:17;;;;;;;5.80;1.30;;;;;;;12.77;100.00;100120.50;5090488;28;20114;-50
2023/10/14 01:45:50;;;;;;;6.78;1.38;;;;;;;12.76;100.00;100130.25;5073487;28;20053;-46
2023/10/14 01:48:21;;;;;;;6.63;1.25;;;;;;;12.76;100.00;100134.66;5074612;28;20056;-48
2023/10/14 01:50:54;;;;;;;7.35;1.30;;;;;;;12.78;100.00;100138.84;5074840;28;20076;-48
2023/10/14 01:53:27;;;;;;;6.65;1.85;;;;;;;12.70;100.00;100151.84;5074726;28;20040;-45
2023/10/14 01:55:58;;;;;;;10.10;1.67;;;;;;;12.63;100.00;100154.19;5073277;28;20048;-47
2023/10/14 01:58:33;;;;;;;8.57;1.70;;;;;;;12.67;100.00;100162.69;5074316;28;20045;-49
2023/10/14 02:01:07;;;;;;;8.10;1.13;;;;;;;12.63;100.00;100172.63;5074508;28;20062;-45
2023/10/14 02:03:41;;;;;;;8.05;1.60;;;;;;;12.68;100.00;100170.47;5074491;28;20037;-47
2023/10/14 02:06:12;;;;;;;7.07;1.70;;;;;;;12.59;100.00;100180.94;5074427;28;20113;-45
2023/10/14 02:08:42;;;;;;;9.57;1.88;;;;;;;12.59;100.00;100186.22;5074556;28;20059;-46
2023/10/14 02:11:10;;;;;;;10.18;1.45;;;;;;;12.57;100.00;100194.28;5074193;28;20052;-45
2023/10/14 02:13:38;;;;;;;6.90;1.50;;;;;;;12.59;100.00;100199.41;5074332;28;20053;-45
2023/10/14 02:16:08;;;;;;;10.77;2.30;;;;;;;12.52;100.00;100197.28;5073958;28;20581;-49
2023/10/14 02:18:37;;;;;;;11.73;1.70;;;;;;;12.56;100.00;100203.16;5073916;28;20495;-47
2023/10/14 02:21:11;;;;;;;14.48;2.33;;;;;;;12.51;100.00;100206.16;5073425;28;20049;-49
2023/10/14 02:23:50;;;;;;;8.13;1.60;;;;;;;12.47;100.00;100215.28;5074107;28;20109;-46
2023/10/14 02:26:24;;;;;;;9.40;1.50;;;;;;;12.47;100.00;100222.38;5074122;28;20123;-45
2023/10/14 02:28:55;;;;;;;9.00;1.67;;;;;;;12.49;100.00;100234.47;5074232;28;20051;-48
2023/10/14 02:31:35;;;;;;;8.68;1.60;;;;;;;12.54;100.00;100247.25;5073864;28;20075;-47
2023/10/14 02:34:06;;;;;;;9.88;1.83;;;;;;;12.44;100.00;100256.91;5073685;28;20098;-45
2023/10/14 02:36:36;;;;;;;7.32;1.75;;;;;;;12.41;100.00;100259.81;5074215;28;20049;-46
2023/10/14 02:39:14;;;;;;;11.13;1.67;;;;;;;12.34;100.00;100272.66;5073898;28;20040;-46
2023/10/14 02:41:45;;;;;;;11.45;2.05;;;;;;;12.37;100.00;100272.41;5073982;28;20488;-49
2023/10/14 02:44:28;;;;;;;9.30;1.85;;;;;;;12.36;100.00;100275.16;5073446;28;20110;-47
2023/10/14 02:47:01;;;;;;;11.00;2.03;;;;;;;12.25;100.00;100289.22;5073850;28;20498;-49
2023/10/14 02:49:35;;;;;;;8.05;1.80;;;;;;;12.22;100.00;100306.13;5073751;28;20094;-46
2023/10/14 02:52:08;;;;;;;10.88;2.35;;;;;;;12.08;100.00;100316.91;5073385;28;20111;-49
2023/10/14 02:54:41;;;;;;;10.38;2.40;;;;;;;12.07;100.00;100313.47;5073534;28;20043;-47
2023/10/14 02:57:26;;;;;;;10.80;1.60;;;;;;;12.00;100.00;100331.56;5073487;28;20063;-48
2023/10/14 02:59:56;;;;;;;7.90;1.58;;;;;;;11.92;100.00;100343.63;5073466;28;20048;-50
2023/10/14 03:02:27;;;;;;;9.82;1.75;;;;;;;11.94;100.00;100344.34;5071600;28;20043;-49
2023/10/14 03:07:50;;;;;;;13.75;2.42;;;;;;;11.81;100.00;100352.38;5067767;28;20441;-51
2023/10/14 03:10:28;;;;;;;7.38;1.95;;;;;;;11.77;100.00;100359.69;5068766;28;20066;-47
2023/10/14 03:12:59;;;;;;;11.07;1.80;;;;;;;11.65;100.00;100366.72;5068728;28;20058;-49
2023/10/14 03:15:38;;;;;;;10.98;2.15;;;;;;;11.70;100.00;100368.16;5072228;28;20559;-47
2023/10/14 03:18:07;;;;;;;7.45;1.50;;;;;;;11.60;100.00;100383.84;5069100;28;20093;-47
2023/10/14 03:20:39;;;;;;;9.77;2.17;;;;;;;11.60;100.00;100382.06;5069502;28;20068;-49
2023/10/14 03:23:12;;;;;;;10.52;1.60;;;;;;;11.55;100.00;100384.22;5069460;28;20043;-46
2023/10/14 03:25:42;;;;;;;11.73;1.80;;;;;;;11.45;100.00;100401.66;5068762;28;20050;-48
2023/10/14 03:28:14;;;;;;;8.18;1.80;;;;;;;11.41;100.00;100398.44;5068945;28;20141;-48
2023/10/14 03:30:47;;;;;;;;;;;;;;;11.42;100.00;100407.97;5069528;28;20120;-47
2023/10/14 03:33:19;;;;;;;9.35;1.55;;;;;;;11.36;100.00;100404.97;5068852;28;19928;-47
2023/10/14 03:35:56;;;;;;;9.63;1.83;;;;;;;11.31;100.00;100415.88;5071034;28;20041;-47
2023/10/14 03:38:39;;;;;;;11.00;1.60;;;;;;;11.23;100.00;100419.06;5072612;28;20710;-47
2023/10/14 03:41:16;;;;;;;12.32;2.17;;;;;;;11.14;100.00;100435.56;5067590;28;20450;-47
2023/10/14 03:43:54;;;;;;;12.32;1.95;;;;;;;11.09;100.00;100438.50;5068572;28;20110;-46
2023/10/14 03:46:32;;;;;;;10.73;1.60;;;;;;;10.98;100.00;100444.56;5069381;28;20447;-48
2023/10/14 03:49:07;;;;;;;17.30;2.10;;;;;;;10.96;100.00;100453.50;5071447;28;20503;-47
2023/10/14 03:51:39;;;;;;;12.00;1.75;;;;;;;10.89;100.00;100461.00;5068854;28;20476;-48
2023/10/14 03:54:09;;;;;;;10.23;1.80;;;;;;;10.86;100.00;100458.63;5068530;28;20049;-49
2023/10/14 03:56:44;;;;;;;12.35;1.90;;;;;;;10.84;100.00;100465.78;5067258;28;20083;-48
2023/10/14 03:59:20;;;;;;;8.30;1.83;;;;;;;10.80;100.00;100469.59;5068780;28;20513;-46
2023/10/14 04:01:54;;;;;;;12.38;2.53;;;;;;;10.76;100.00;100474.22;5070324;28;20086;-48
2023/10/14 04:04:26;;;;;;;12.65;1.67;;;;;;;10.67;100.00;100488.03;5072076;28;20056;-47
2023/10/14 04:07:15;;;;;;;9.70;1.58;;;;;;;10.68;100.00;100489.72;5072054;28;20041;-48
2023/10/14 04:09:50;;;;;;;11.93;1.85;;;;;;;10.59;100.00;100495.63;5072122;28;20048;-48
2023/10/14 04:12:37;;;;;;;13.68;1.90;;;;;;;10.53;100.00;100504.78;5067702;28;20055;-46
2023/10/14 04:15:23;;;;;;;17.40;2.80;;;;;;;10.46;100.00;100504.38;5069715;28;20052;-48
2023/10/14 04:17:55;;;;;;;11.10;1.70;;;;;;;10.45;100.00;100501.84;5069400;28;20094;-47
2023/10/14 04:20:29;;;;;;;9.88;2.08;;;;;;;10.46;100.00;100508.81;5068434;28;20074;-47
2023/10/14 04:22:58;;;;;;;10.20;1.83;;;;;;;10.44;100.00;100516.81;5068236;28;20117;-50
2023/10/14 04:25:39;;;;;;;12.50;2.50;;;;;;;10.39;100.00;100512.78;5067680;28;20094;-47
2023/10/14 04:28:25;;;;;;;12.95;2.60;;;;;;;10.32;100.00;100528.97;5067681;28;20454;-49
2023/10/14 04:30:54;;;;;;;11.65;1.70;;;;;;;10.25;100.00;100527.72;5071021;28;20128;-47
2023/10/14 04:33:33;;;;;;;10.10;1.65;;;;;;;10.27;100.00;100530.25;5071509;28;20055;-49
2023/10/14 04:36:36;;;;;;;9.93;1.85;;;;;;;10.17;100.00;100547.56;5071846;28;20063;-47
2023/10/14 04:39:12;;;;;;;14.10;3.60;;;;;;;10.13;100.00;100550.41;5068884;28;20555;-49
2023/10/14 04:42:22;;;;;;;12.13;1.85;;;;;;;10.19;100.00;100554.41;5067076;28;20177;-48
2023/10/14 04:44:58;;;;;;;10.43;2.22;;;;;;;10.15;100.00;100558.19;5075147;28;20059;-48
2023/10/14 04:47:36;;;;;;;7.70;1.65;;;;;;;10.11;100.00;100567.22;5078280;28;20060;-49
2023/10/14 04:50:13;;;;;;;8.27;1.63;;;;;;;10.06;100.00;100569.31;5078298;28;20118;-47
2023/10/14 04:52:48;;;;;;;13.50;1.90;;;;;;;9.98;100.00;100573.31;5078330;28;20439;-46
2023/10/14 04:55:29;;;;;;;10.68;1.80;;;;;;;10.00;100.00;100567.94;5078156;28;20476;-47
2023/10/14 04:58:23;;;;;;;13.93;1.58;;;;;;;9.96;100.00;100580.44;5078274;28;20494;-48
2023/10/14 05:00:57;;;;;;;12.25;2.03;;;;;;;9.93;100.00;100588.53;5074617;28;20061;-46
2023/10/14 05:03:25;;;;;;;16.33;2.65;;;;;;;9.90;100.00;100583.47;5076699;28;20398;-48
2023/10/14 05:05:55;;;;;;;9.25;1.88;;;;;;;9.89;100.00;100600.19;5075461;28;20095;-47
2023/10/14 05:08:28;;;;;;;10.05;1.70;;;;;;;9.81;100.00;100605.09;5074803;28;20389;-49
2023/10/14 05:10:56;;;;;;;10.90;2.25;;;;;;;9.79;100.00;100614.88;5078162;28;20066;-46
2023/10/14 05:13:31;;;;;;;9.65;2.00;;;;;;;9.69;100.00;100621.66;5076664;28;20044;-49
2023/10/14 05:16:15;;;;;;;12.65;2.25;;;;;;;9.68;100.00;100627.84;5074836;28;20044;-47
2023/10/14 05:18:58;;;;;;;12.00;2.17;;;;;;;9.66;100.00;100627.94;5074378;28;20067;-47
2023/10/14 05:21:36;;;;;;;11.68;1.88;;;;;;;9.67;100.00;100634.91;5076591;28;20045;-48
2023/10/14 05:24:09;;;;;;;10.73;2.03;;;;;;;9.65;100.00;100639.38;5074640;28;20041;-49
2023/10/14 05:26:44;;;;;;;13.10;2.00;;;;;;;9.63;100.00;100646.53;5073644;28;20052;-48
2023/10/14 05:29:16;;;;;;;11.85;1.70;;;;;;;9.61;100.00;100644.00;5077462;28;20098;-47
2023/10/14 05:31:47;;;;;;;10.60;2.28;;;;;;;9.55;100.00;100651.44;5073186;28;20048;-48
2023/10/14 05:34:17;;;;;;;9.93;1.67;;;;;;;9.62;100.00;100666.69;5075908;28;20063;-47
2023/10/14 05:36:47;;;;;;;12.75;1.85;;;;;;;9.55;100.00;100662.78;5075900;28;20048;-47
2023/10/14 05:39:17;;;;;;;14.82;1.83;;;;;;;9.52;100.00;100670.03;5074173;28;20154;-45
2023/10/14 05:41:48;;;;;;;8.57;1.70;;;;;;;9.46;100.00;100679.09;5071654;28;20641;-46
2023/10/14 05:44:16;;;;;;;9.52;1.58;;;;;;;9.45;100.00;100683.53;5074336;28;20137;-47
2023/10/14 05:46:45;;;;;;;9.85;1.80;;;;;;;9.45;100.00;100690.56;5074381;28;20052;-47
2023/10/14 05:49:16;;;;;;;16.90;2.05;;;;;;;9.41;100.00;100696.94;5076338;28;20048;-47
2023/10/14 05:51:44;;;;;;;14.20;1.70;;;;;;;9.40;100.00;100703.13;5077905;28;20529;-49
2023/10/14 05:54:12;;;;;;;14.43;2.03;;;;;;;9.41;100.00;100704.81;5077707;28;20127;-49
2023/10/14 05:56:42;;;;;;;12.48;1.55;;;;;;;9.42;100.00;100702.09;5074643;28;20059;-48
2023/10/14 05:59:11;;;;;;;12.70;1.80;;;;;;;9.38;100.00;100699.75;5074326;28;20495;-49
2023/10/14 06:01:45;;;;;;;14.35;2.10;;;;;;;9.33;100.00;100718.41;5071226;28;20156;-48
2023/10/14 06:04:15;;;;;;;12.80;2.08;;;;;;;9.34;100.00;100716.63;5071020;28;20041;-49
2023/10/14 06:06:46;;;;;;;13.23;2.70;;;;;;;9.33;100.00;100714.94;5070889;28;20408;-51
2023/10/14 06:09:16;;;;;;;11.75;1.80;;;;;;;9.30;100.00;100735.19;5074338;28;20115;-53
2023/10/14 06:11:46;;;;;;;11.38;1.90;;;;;;;9.31;100.00;100730.75;5074313;28;20106;-48
2023/10/14 06:14:15;;;;;;;10.90;1.60;;;;;;;9.30;100.00;100734.34;5074235;28;20427;-49
2023/10/14 06:16:43;;;;;;;12.07;1.80;;;;;;;9.27;100.00;100751.13;5074170;28;20044;-48
2023/10/14 06:19:13;;;;;;;13.25;1.92;;;;;;;9.27;100.00;100752.88;5073943;28;20047;-48
2023/10/14 06:21:44;;;;;;;11.50;1.60;;;;;;;9.25;100.00;100755.59;5070710;28;20052;-48
2023/10/14 06:24:12;;;;;;;11.80;2.15;;;;;;;9.25;100.00;100765.28;5070797;28;20049;-46
2023/10/14 06:26:40;;;;;;;9.32;2.05;;;;;;;9.21;100.00;100767.22;5074107;28;20044;-48
2023/10/14 06:29:09;;;;;;;11.13;2.10;;;;;;;9.21;100.00;100777.72;5074280;28;20388;-48
2023/10/14 06:31:38;;;;;;;11.10;1.88;;;;;;;9.22;100.00;100784.66;5073828;28;20400;-49
2023/10/14 06:34:09;;;;;;;11.18;2.00;;;;;;;9.23;100.00;100785.50;5072787;28;20127;-48
2023/10/14 06:36:37;;;;;;;10.85;2.17;;;;;;;9.24;100.00;100788.06;5074093;28;20102;-48
2023/10/14 06:39:14;;;;;;;9.43;1.70;;;;;;;9.26;100.00;100798.47;5072533;28;20049;-47
2023/10/14 06:41:44;;;;;;;9.13;1.70;;;;;;;9.31;100.00;100804.25;5069050;28;20373;-48
2023/10/14 06:44:15;;;;;;;11.55;2.00;;;;;;;9.33;100.00;100812.06;5072261;28;20056;-49
2023/10/14 06:46:44;;;;;;;12.73;2.42;;;;;;;9.33;100.00;100817.31;5070357;28;20048;-48
2023/10/14 06:49:14;;;;;;;11.48;2.20;;;;;;;9.39;100.00;100815.13;5070116;28;20400;-47
2023/10/14 06:51:43;;;;;;;10.13;2.22;;;;;;;9.40;100.00;100818.63;5070214;28;20041;-46
2023/10/14 06:54:14;;;;;;;14.98;1.95;;;;;;;9.39;100.00;100824.78;5070241;28;20044;-49
2023/10/14 06:56:44;;;;;;;15.70;2.15;;;;;;;9.40;100.00;100829.13;5072919;28;20166;-48
2023/10/14 06:59:13;;;;;;;13.60;1.90;;;;;;;9.42;100.00;100827.22;5073600;28;20048;-48
2023/10/14 07:01:43;;;;;;;10.10;2.13;;;;;;;9.45;100.00;100832.31;5072155;28;20106;-48
2023/10/14 07:04:12;;;;;;;13.32;2.05;;;;;;;9.52;100.00;100838.03;5069752;28;20048;-48
2023/10/14 07:06:42;;;;;;;13.32;2.60;;;;;;;9.60;100.00;100843.66;5072063;28;20041;-48
2023/10/14 07:09:17;;;;;;;15.63;2.42;;;;;;;9.72;100.00;100847.31;5072728;28;20041;-47
2023/10/14 07:11:47;;;;;;;17.98;2.47;;;;;;;9.79;100.00;100851.25;5073217;28;20568;-49
2023/10/14 07:14:18;;;;;;;8.65;1.95;;;;;;;9.96;100.00;100860.72;5073041;28;20507;-50
2023/10/14 07:16:46;;;;;;;11.27;2.00;;;;;;;10.18;100.00;100873.34;5071007;28;20045;-47
2023/10/14 07:19:14;;;;;;;13.10;2.15;;;;;;;10.24;100.00;100878.22;5069652;28;20072;-50
2023/10/14 07:21:45;;;;;;;11.57;1.92;;;;;;;10.39;100.00;100872.94;5070069;28;20052;-47
2023/10/14 07:24:14;;;;;;;19.00;2.38;;;;;;;10.68;100.00;100880.78;5069819;28;20075;-49
2023/10/14 07:26:43;;;;;;;14.85;2.08;;;;;;;10.81;100.00;100886.91;5068006;28;20115;-50
2023/10/14 07:29:13;;;;;;;15.52;2.38;;;;;;;11.24;100.00;100891.13;5071150;28;20495;-50
2023/10/14 07:31:41;;;;;;;13.75;2.53;;;;;;;11.40;100.00;100901.44;5071567;28;20087;-47
2023/10/14 07:34:10;;;;;;;14.70;2.05;;;;;;;11.54;100.00;100900.53;5072706;28;20455;-49
2023/10/14 07:36:38;;;;;;;11.23;2.20;;;;;;;11.74;100.00;100896.50;5072612;28;20055;-46
2023/10/14 07:39:27;;;;;;;12.23;2.00;;;;;;;12.09;100.00;100902.00;5072828;28;20051;-48
2023/10/14 07:41:56;;;;;;;12.25;2.13;;;;;;;12.26;100.00;100907.88;5069316;28;20059;-47
2023/10/14 07:44:26;;;;;;;15.80;2.58;;;;;;;12.48;100.00;100910.63;5068961;28;20064;-48
2023/10/14 07:46:55;;;;;;;16.42;2.30;;;;;;;12.55;100.00;100918.13;5072235;28;20055;-47
2023/10/14 07:49:24;;;;;;;14.00;2.20;;;;;;;12.68;100.00;100917.09;5072363;28;20564;-46
2023/10/14 07:51:56;;;;;;;17.45;2.28;;;;;;;12.72;100.00;100922.16;5072205;28;20400;-47
2023/10/14 07:54:26;;;;;;;11.07;2.45;;;;;;;12.76;100.00;100931.53;5072311;28;20063;-45
2023/10/14 07:56:54;;;;;;;17.33;2.60;;;;;;;12.88;100.00;100933.28;5071130;28;20049;-46
2023/10/14 07:59:22;;;;;;;9.60;2.10;;;;;;;12.96;100.00;100933.53;5072659;28;20414;-44
2023/10/14 08:01:52;;;;;;;16.15;2.35;;;;;;;13.04;100.00;100940.91;5072145;28;20052;-48
2023/10/14 08:04:23;;;;;;;15.45;2.47;;;;;;;13.27;100.00;100946.28;5072375;28;20098;-46
2023/10/14 08:06:52;;;;;;;13.05;2.25;;;;;;;13.48;100.00;100949.13;5072367;28;20043;-47
2023/10/14 08:09:24;;;;;;;11.02;2.50;;;;;;;13.81;100.00;100950.13;5072130;28;20072;-46
2023/10/14 08:11:54;;;;;;;13.10;2.60;;;;;;;13.90;100.00;100949.44;5071893;28;20814;-47
2023/10/14 08:14:22;;;;;;;13.82;2.53;;;;;;;14.08;100.00;100955.09;5072011;28;20519;-46
2023/10/14 08:16:50;;;;;;;11.02;2.17;;;;;;;14.27;100.00;100965.06;5070739;28;20044;-46
2023/10/14 08:19:21;;;;;;;14.15;2.13;;;;;;;14.24;100.00;100957.38;5071672;28;20055;-47
2023/10/14 08:21:51;;;;;;;13.95;2.60;;;;;;;14.34;100.00;100960.13;5071948;28;20048;-46
2023/10/14 08:24:20;;;;;;;10.93;2.38;;;;;;;14.32;100.00;100973.47;5071752;28;20135;-46
2023/10/14 08:26:49;;;;;;;18.50;3.25;;;;;;;14.17;100.00;100972.88;5070789;28;20560;-48
2023/10/14 08:29:20;;;;;;;14.80;3.05;;;;;;;14.42;100.00;100975.41;5071937;28;20048;-49
2023/10/14 08:31:51;;;;;;;14.57;2.65;;;;;;;14.43;100.00;100983.22;5071874;28;20056;-46
2023/10/14 08:34:23;;;;;;;11.10;2.22;;;;;;;14.33;100.00;100988.41;5071775;28;20044;-46
2023/10/14 08:36:52;;;;;;;11.85;2.45;;;;;;;14.43;100.00;100985.88;5071776;28;20041;-45
2023/10/14 08:39:23;;;;;;;13.55;2.30;;;;;;;14.62;100.00;100992.34;5071921;28;20123;-48
2023/10/14 08:41:56;;;;;;;12.63;2.60;;;;;;;14.43;100.00;101004.38;5071881;28;20053;-47
2023/10/14 08:44:28;;;;;;;14.40;3.20;;;;;;;14.53;100.00;101005.34;5071554;28;20455;-44
2023/10/14 08:46:56;;;;;;;14.20;2.28;;;;;;;14.58;100.00;101006.78;5071935;28;20049;-46
2023/10/14 08:49:28;;;;;;;13.35;2.88;;;;;;;14.59;100.00;101005.81;5071767;28;20047;-45
2023/10/14 08:51:59;;;;;;;15.32;2.58;;;;;;;14.66;100.00;101007.88;5071743;28;20044;-46
2023/10/14 08:54:27;;;;;;;17.58;2.08;;;;;;;14.61;100.00;101017.13;5071794;28;20037;-48
2023/10/14 08:56:55;;;;;;;10.40;2.20;;;;;;;14.59;100.00;101024.34;5071972;28;20052;-46
2023/10/14 08:59:23;;;;;;;12.93;2.47;;;;;;;14.69;100.00;101014.75;5070232;28;20052;-45
2023/10/14 09:01:56;;;;;;;14.85;2.95;;;;;;;14.67;100.00;101017.50;5071560;28;20558;-47
2023/10/14 09:04:30;;;;;;;12.15;2.15;;;;;;;14.78;100.00;101027.25;5071407;28;20040;-45
2023/10/14 09:07:02;;;;;;;13.45;1.98;;;;;;;14.79;100.00;101026.28;5071528;28;20075;-46
2023/10/14 09:09:31;;;;;;;11.80;2.63;;;;;;;14.77;100.00;101028.19;5071538;28;20053;-47
2023/10/14 09:12:10;;;;;;;13.15;2.80;;;;;;;14.85;100.00;101025.78;5071536;28;20044;-46
2023/10/14 09:14:40;;;;;;;12.73;2.42;;;;;;;14.90;100.00;101033.34;5070174;28;20048;-46
2023/10/14 09:17:09;;;;;;;16.13;2.38;;;;;;;14.85;100.00;101044.31;5071523;28;20048;-49
2023/10/14 09:19:45;;;;;;;11.57;2.58;;;;;;;14.93;100.00;101035.75;5071556;28;20514;-48
2023/10/14 09:22:22;;;;;;;12.85;2.50;;;;;;;14.74;100.00;101049.63;5071256;28;20044;-47
2023/10/14 09:24:51;;;;;;;13.60;2.92;;;;;;;14.83;100.00;101043.59;5067721;28;20050;-48
2023/10/14 09:27:20;;;;;;;11.77;1.95;;;;;;;14.95;100.00;101041.75;5067863;28;20040;-46
2023/10/14 09:29:49;;;;;;;20.13;2.47;;;;;;;15.07;100.00;101052.34;5071204;28;20049;-49
2023/10/14 09:32:17;;;;;;;10.88;1.95;;;;;;;15.08;100.00;101056.66;5073846;28;20106;-50
2023/10/14 09:34:47;;;;;;;13.80;2.13;;;;;;;15.08;100.00;101054.00;5074915;28;20044;-48
2023/10/14 09:37:17;;;;;;;12.30;2.28;;;;;;;15.18;100.00;101055.78;5075225;28;20371;-47
2023/10/14 09:39:49;;;;;;;11.43;2.40;;;;;;;15.38;100.00;101048.03;5075046;28;20444;-45
2023/10/14 09:42:22;;;;;;;11.53;1.93;;;;;;;15.69;100.00;101054.28;5074964;28;20059;-47
2023/10/14 09:44:51;;;;;;;15.10;2.10;;;;;;;15.77;100.00;101063.41;5074714;28;20514;-48
2023/10/14 09:47:22;;;;;;;12.77;2.65;;;;;;;15.75;100.00;101065.31;5074780;28;20384;-47
2023/10/14 09:49:53;;;;;;;11.00;1.95;;;;;;;15.85;100.00;101069.75;5074340;28;20132;-51
2023/10/14 09:52:22;;;;;;;14.57;2.78;;;;;;;15.88;100.00;101066.00;5074693;28;20044;-50
2023/10/14 09:54:52;;;;;;;10.45;2.17;;;;;;;16.04;100.00;101074.34;5074574;28;20527;-49
2023/10/14 09:57:22;;;;;;;11.80;2.10;;;;;;;15.89;100.00;101070.34;5074347;28;20071;-49
2023/10/14 09:59:53;;;;;;;15.95;2.63;;;;;;;16.03;100.00;101064.75;5074505;28;20498;-46
2023/10/14 10:02:22;;;;;;;11.77;2.20;;;;;;;16.12;100.00;101078.19;5074416;28;20044;-46
2023/10/14 10:04:53;;;;;;;11.20;1.92;;;;;;;16.34;100.00;101083.31;5072545;28;20071;-50
2023/10/14 10:07:41;;;;;;;10.27;1.88;;;;;;;16.45;100.00;101078.91;5069377;28;20041;-45
2023/10/14 10:10:16;;;;;;;11.05;2.38;;;;;;;16.71;100.00;101088.13;5074382;28;20118;-48
2023/10/14 10:12:52;;;;;;;14.68;2.17;;;;;;;16.75;100.00;101090.50;5074277;28;20040;-46
2023/10/14 10:15:22;;;;;;;10.55;2.15;;;;;;;16.94;100.00;101101.22;5074275;28;20131;-47
2023/10/14 10:18:01;;;;;;;10.43;1.70;;;;;;;17.05;100.00;101093.13;5072368;28;20120;-49
2023/10/14 10:20:35;;;;;;;11.90;2.28;;;;;;;16.85;100.00;101094.00;5070417;28;20503;-47
2023/10/14 10:23:07;;;;;;;10.23;1.80;;;;;;;16.62;100.00;101107.50;5073292;28;20044;-48
2023/10/14 10:25:51;;;;;;;14.00;2.30;;;;;;;16.44;100.00;101103.78;5073957;28;20044;-49
2023/10/14 10:28:44;;;;;;;10.40;2.00;;;;;;;16.32;100.00;101103.00;5074070;28;20479;-47
2023/10/14 10:31:16;;;;;;;9.60;1.90;;;;;;;16.01;100.00;101109.09;5064125;28;20052;-47
2023/10/14 10:33:54;;;;;;;8.88;1.70;;;;;;;15.48;100.00;101120.50;5073961;28;20123;-51
2023/10/14 10:36:27;;;;;;;7.63;1.30;;;;;;;15.13;100.00;101121.53;5073829;28;20059;-47
2023/10/14 10:39:05;;;;;;;5.32;1.20;;;;;;;14.91;100.00;101114.47;5073834;28;20045;-49
2023/10/14 10:41:37;;;;;;;4.72;1.25;;;;;;;14.66;100.00;101116.41;5073467;28;20364;-47
2023/10/14 10:44:08;;;;;;;6.28;1.13;;;;;;;14.07;100.00;101112.09;5073576;28;20127;-46
2023/10/14 10:46:41;;;;;;;5.55;1.05;;;;;;;14.13;100.00;101118.72;5073688;28;20045;-48
2023/10/14 10:49:11;;;;;;;5.18;1.10;;;;;;;14.12;100.00;101117.03;5073677;28;20044;-45
2023/10/14 10:51:51;;;;;;;9.75;2.00;;;;;;;14.44;100.00;101122.50;5069457;28;20056;-46
2023/10/14 10:54:22;;;;;;;4.40;1.27;;;;;;;15.08;100.00;101131.69;5069920;28;20049;-47
2023/10/14 10:56:51;;;;;;;8.88;1.63;;;;;;;15.40;100.00;101133.53;5073448;28;20079;-50
2023/10/14 10:59:36;;;;;;;12.73;1.95;;;;;;;15.66;100.00;101128.75;5073190;28;20124;-49
2023/10/14 11:02:07;;;;;;;11.98;2.22;;;;;;;15.83;100.00;101135.34;5070864;28;20044;-46
2023/10/14 11:04:36;;;;;;;13.23;2.58;;;;;;;16.27;100.00;101129.13;5069704;28;20166;-47
2023/10/14 11:07:08;;;;;;;10.80;2.53;;;;;;;16.54;100.00;101132.06;5073078;28;20044;-48
2023/10/14 11:09:39;;;;;;;9.60;1.85;;;;;;;16.45;100.00;101135.50;5072292;28;20044;-47
2023/10/14 11:12:09;;;;;;;9.27;2.20;;;;;;;16.26;100.00;101149.47;5068372;28;20506;-49
2023/10/14 11:14:38;;;;;;;10.52;2.70;;;;;;;16.14;100.00;101148.72;5071908;28;20044;-47
2023/10/14 11:17:06;;;;;;;10.43;2.08;;;;;;;16.49;100.00;101144.03;5072725;28;20124;-48
2023/10/14 11:19:35;;;;;;;10.55;1.90;;;;;;;16.62;100.00;101144.69;5070202;28;20464;-47
2023/10/14 11:22:07;;;;;;;11.40;2.05;;;;;;;16.76;100.00;101140.00;5069961;28;20053;-50
2023/10/14 11:24:36;;;;;;;8.38;1.90;;;;;;;16.62;100.00;101157.94;5072977;28;20052;-50
2023/10/14 11:27:08;;;;;;;10.68;1.92;;;;;;;16.27;100.00;101148.53;5073132;28;20048;-48
2023/10/14 11:29:36;;;;;;;9.48;2.13;;;;;;;15.98;100.00;101145.66;5072506;28;20053;-47
2023/10/14 11:32:05;;;;;;;8.20;1.55;;;;;;;16.13;100.00;101140.88;5072000;28;20139;-48
2023/10/14 11:34:37;;;;;;;10.90;2.00;;;;;;;15.94;100.00;101139.78;5068849;28;20048;-51
2023/10/14 11:37:10;;;;;;;13.18;1.73;;;;;;;15.69;100.00;101140.91;5069103;28;20048;-48
2023/10/14 11:39:39;;;;;;;8.30;2.05;;;;;;;15.58;100.00;101138.31;5072479;28;20114;-50
2023/10/14 11:42:08;;;;;;;9.02;1.52;;;;;;;15.41;100.00;101150.31;5068089;28;20504;-50